Time;durP1;ratioP1;P1;durP2;ratioP2;P2;SDS_P1;SDS_P2;PMS_P1;PMS_P2;Temp;Humidity;BMP_temperature;BMP_pressure;BME280_temperature;BME280_humidity;BME280_pressure;Samples;Min_cycle;Max_cycle;Signal;HPM_P1;HPM_P2
2024/01/19 00:02:01;;;;;;;16.40;10.10;;;;;;;;;;103753;1295;545703;-73
2024/01/19 00:05:38;;;;;;;18.10;9.70;;;;;;;;;;103796;1288;545815;-74
2024/01/19 00:09:16;;;;;;;14.20;8.20;;;;;;;;;;103782;1298;545320;-75
2024/01/19 00:12:53;;;;;;;16.00;9.60;;;;;;;;;;103720;1291;545610;-74
2024/01/19 00:16:31;;;;;;;16.30;9.80;;;;;;;;;;103683;1295;544768;-74
2024/01/19 00:20:10;;;;;;;16.90;10.20;;;;;;;;;;103724;1289;545473;-75
2024/01/19 00:23:50;;;;;;;17.30;9.50;;;;;;;;;;103862;1289;544924;-73
2024/01/19 00:27:25;;;;;;;17.00;9.60;;;;;;;;;;103765;1291;544992;-74
2024/01/19 00:30:57;;;;;;;17.30;9.90;;;;;;;;;;103924;1289;544787;-73
2024/01/19 00:34:34;;;;;;;16.50;9.80;;;;;;;;;;103773;1292;544976;-73
2024/01/19 00:38:16;;;;;;;17.40;10.80;;;;;;;;;;103893;1292;544870;-74
2024/01/19 00:42:13;;;;;;;19.20;10.90;;;;;;;;;;103689;1294;545198;-73
2024/01/19 00:45:31;;;;;;;18.50;9.80;;;;;;;;;;103727;1293;544845;-76
2024/01/19 00:49:08;;;;;;;16.80;8.60;;;;;;;;;;103753;1289;545445;-74
2024/01/19 00:52:45;;;;;;;16.10;9.10;;;;;;;;;;103719;1291;545517;-73
2024/01/19 00:56:23;;;;;;;15.50;9.30;;;;;;;;;;103703;1290;544738;-73
2024/01/19 01:00:00;;;;;;;18.00;10.30;;;;;;;;;;103814;1289;544783;-74
2024/01/19 01:03:39;;;;;;;19.60;9.40;;;;;;;;;;104126;1289;545269;-75
2024/01/19 01:07:21;;;;;;;14.30;8.70;;;;;;;;;;103437;1292;548447;-74
2024/01/19 01:10:54;;;;;;;13.60;7.80;;;;;;;;;;103758;1292;544770;-74
2024/01/19 01:14:30;;;;;;;15.30;8.80;;;;;;;;;;103735;1295;545828;-74
2024/01/19 01:18:08;;;;;;;16.60;9.00;;;;;;;;;;103836;1289;544981;-74
2024/01/19 01:21:46;;;;;;;14.00;8.70;;;;;;;;;;103835;1289;544883;-73
2024/01/19 01:25:19;;;;;;;15.20;8.60;;;;;;;;;;103411;1297;545004;-74
2024/01/19 01:29:00;;;;;;;15.00;9.30;;;;;;;;;;103645;1292;545000;-74
2024/01/19 01:32:38;;;;;;;17.20;9.30;;;;;;;;;;103707;1291;545063;-75
2024/01/19 01:36:15;;;;;;;15.40;8.90;;;;;;;;;;103891;1291;544857;-75
2024/01/19 01:39:53;;;;;;;16.20;9.00;;;;;;;;;;103758;1292;545649;-74
2024/01/19 01:43:30;;;;;;;14.60;9.10;;;;;;;;;;103737;1291;544894;-74
2024/01/19 01:47:08;;;;;;;16.50;10.00;;;;;;;;;;103390;1299;545273;-73
2024/01/19 01:50:45;;;;;;;18.20;11.00;;;;;;;;;;103672;1291;545786;-75
2024/01/19 01:54:23;;;;;;;17.60;9.00;;;;;;;;;;103825;1295;544754;-74
2024/01/19 01:58:00;;;;;;;16.30;9.70;;;;;;;;;;103722;1292;545275;-74
2024/01/19 02:01:38;;;;;;;15.80;9.80;;;;;;;;;;104430;1285;544741;-74
2024/01/19 02:05:16;;;;;;;18.80;10.90;;;;;;;;;;103714;1292;545412;-74
2024/01/19 02:08:59;;;;;;;16.60;9.80;;;;;;;;;;103390;1294;547994;-74
2024/01/19 02:12:31;;;;;;;15.70;9.40;;;;;;;;;;103697;1292;545574;-74
2024/01/19 02:16:07;;;;;;;18.20;10.90;;;;;;;;;;103694;1292;545073;-75
2024/01/19 02:19:44;;;;;;;16.70;10.70;;;;;;;;;;103765;1289;545571;-74
2024/01/19 02:23:26;;;;;;;21.60;12.50;;;;;;;;;;103693;1291;545009;-75
2024/01/19 02:27:00;;;;;;;21.00;11.90;;;;;;;;;;103966;1287;544759;-76
2024/01/19 02:30:38;;;;;;;19.90;12.40;;;;;;;;;;103429;1294;544969;-75
2024/01/19 02:34:14;;;;;;;23.60;14.40;;;;;;;;;;103779;1294;546264;-73
2024/01/19 02:37:58;;;;;;;22.30;12.20;;;;;;;;;;103572;1291;545747;-75
2024/01/19 02:41:30;;;;;;;19.50;12.20;;;;;;;;;;103655;1292;545008;-74
2024/01/19 02:45:07;;;;;;;18.60;11.20;;;;;;;;;;103720;1289;545038;-75
2024/01/19 02:48:44;;;;;;;19.40;11.90;;;;;;;;;;103743;1291;544859;-74
2024/01/19 02:52:22;;;;;;;20.00;12.80;;;;;;;;;;103712;1290;544797;-74
2024/01/19 02:56:00;;;;;;;20.70;12.00;;;;;;;;;;103706;1291;545035;-75
2024/01/19 02:59:37;;;;;;;20.70;11.70;;;;;;;;;;103457;1295;545872;-74
2024/01/19 03:03:14;;;;;;;17.90;10.70;;;;;;;;;;103759;1292;544899;-74
2024/01/19 03:06:53;;;;;;;20.30;11.70;;;;;;;;;;103728;1288;545418;-74
2024/01/19 03:10:29;;;;;;;19.30;10.90;;;;;;;;;;103604;1291;545090;-73
2024/01/19 03:14:07;;;;;;;17.90;10.10;;;;;;;;;;103693;1292;545646;-74
2024/01/19 03:17:44;;;;;;;16.00;8.80;;;;;;;;;;103745;1289;544920;-74
2024/01/19 03:21:22;;;;;;;14.70;8.40;;;;;;;;;;103681;1292;544797;-75
2024/01/19 03:24:59;;;;;;;18.50;9.90;;;;;;;;;;103676;1294;545787;-75
2024/01/19 03:28:37;;;;;;;17.90;9.90;;;;;;;;;;103704;1289;544761;-74
2024/01/19 03:32:14;;;;;;;18.30;9.60;;;;;;;;;;103747;1293;545644;-73
2024/01/19 03:35:52;;;;;;;17.00;9.50;;;;;;;;;;103765;1292;545038;-72
2024/01/19 03:39:30;;;;;;;17.90;10.60;;;;;;;;;;103713;1291;545311;-74
2024/01/19 03:43:07;;;;;;;18.20;11.20;;;;;;;;;;103775;1291;544739;-73
2024/01/19 03:46:44;;;;;;;19.00;11.90;;;;;;;;;;103731;1293;545085;-73
2024/01/19 03:50:22;;;;;;;16.80;10.10;;;;;;;;;;103583;1291;544852;-72
2024/01/19 03:53:59;;;;;;;18.90;10.60;;;;;;;;;;103871;1294;545570;-74
2024/01/19 03:57:37;;;;;;;17.40;9.70;;;;;;;;;;103759;1292;544855;-73
2024/01/19 04:01:19;;;;;;;20.70;10.70;;;;;;;;;;103491;1291;547868;-75
2024/01/19 04:04:51;;;;;;;18.00;10.50;;;;;;;;;;103708;1294;546652;-72
2024/01/19 04:08:28;;;;;;;15.90;9.40;;;;;;;;;;103758;1289;544975;-73
2024/01/19 04:12:10;;;;;;;18.00;9.00;;;;;;;;;;103676;1298;544996;-73
2024/01/19 04:15:44;;;;;;;15.00;9.30;;;;;;;;;;103797;1295;545487;-72
2024/01/19 04:19:21;;;;;;;17.00;9.90;;;;;;;;;;103729;1292;545563;-73
2024/01/19 04:22:58;;;;;;;18.20;10.60;;;;;;;;;;104150;1286;544768;-73
2024/01/19 04:26:36;;;;;;;14.70;9.20;;;;;;;;;;103730;1293;544863;-74
2024/01/19 04:30:09;;;;;;;15.90;9.60;;;;;;;;;;103850;1289;545951;-73
2024/01/19 04:33:51;;;;;;;15.70;9.20;;;;;;;;;;103889;1293;544781;-74
2024/01/19 04:37:28;;;;;;;16.00;8.90;;;;;;;;;;103806;1292;544718;-73
2024/01/19 04:41:06;;;;;;;16.10;8.10;;;;;;;;;;103775;1290;544858;-74
2024/01/19 04:44:43;;;;;;;14.80;7.50;;;;;;;;;;103776;1302;544828;-72
2024/01/19 04:48:21;;;;;;;14.40;7.60;;;;;;;;;;103789;1289;546139;-72
2024/01/19 04:51:58;;;;;;;12.40;6.30;;;;;;;;;;103754;1289;544759;-74
2024/01/19 04:55:36;;;;;;;14.60;6.50;;;;;;;;;;103628;1292;545884;-74
2024/01/19 04:59:09;;;;;;;16.80;7.60;;;;;;;;;;103809;1292;546076;-73
2024/01/19 05:02:51;;;;;;;16.00;7.00;;;;;;;;;;103669;1291;545376;-73
2024/01/19 05:06:28;;;;;;;12.90;6.50;;;;;;;;;;103763;1289;545622;-73
2024/01/19 05:10:06;;;;;;;14.20;6.50;;;;;;;;;;103721;1291;545055;-73
2024/01/19 05:13:43;;;;;;;15.00;7.30;;;;;;;;;;103769;1289;545528;-73
2024/01/19 05:17:21;;;;;;;13.50;7.10;;;;;;;;;;103770;1290;545058;-74
2024/01/19 05:20:58;;;;;;;13.30;6.00;;;;;;;;;;103776;1290;544985;-73
2024/01/19 05:24:42;;;;;;;15.50;8.10;;;;;;;;;;103560;1293;546162;-73
2024/01/19 05:28:12;;;;;;;11.70;6.30;;;;;;;;;;103782;1291;545071;-75
2024/01/19 05:31:50;;;;;;;14.00;6.90;;;;;;;;;;103571;1291;544994;-72
2024/01/19 05:35:27;;;;;;;17.80;8.40;;;;;;;;;;103709;1289;544973;-73
2024/01/19 05:39:07;;;;;;;14.00;6.90;;;;;;;;;;103483;1295;545135;-73
2024/01/19 05:42:42;;;;;;;14.90;7.50;;;;;;;;;;103799;1292;545626;-74
2024/01/19 05:46:20;;;;;;;15.60;8.40;;;;;;;;;;103890;1289;544738;-73
2024/01/19 05:49:57;;;;;;;16.20;7.70;;;;;;;;;;104007;1292;544798;-72
2024/01/19 05:53:36;;;;;;;12.80;7.30;;;;;;;;;;103705;1295;545652;-72
2024/01/19 05:57:09;;;;;;;15.70;8.90;;;;;;;;;;103895;1289;544987;-75
2024/01/19 06:00:50;;;;;;;14.90;7.60;;;;;;;;;;103597;1291;544771;-74
2024/01/19 06:04:27;;;;;;;15.20;7.60;;;;;;;;;;103773;1289;545602;-74
2024/01/19 06:08:05;;;;;;;20.70;10.50;;;;;;;;;;103656;1291;544859;-73
2024/01/19 06:11:42;;;;;;;15.90;9.00;;;;;;;;;;103778;1289;545316;-74
2024/01/19 06:15:19;;;;;;;16.70;8.70;;;;;;;;;;103762;1292;545019;-75
2024/01/19 06:19:00;;;;;;;15.50;8.10;;;;;;;;;;103649;1291;545006;-73
2024/01/19 06:22:34;;;;;;;20.40;8.90;;;;;;;;;;103665;1292;544966;-73
2024/01/19 06:26:12;;;;;;;16.50;7.80;;;;;;;;;;103764;1289;544911;-74
2024/01/19 06:29:50;;;;;;;16.90;8.50;;;;;;;;;;103694;1291;544878;-73
2024/01/19 06:33:27;;;;;;;17.20;8.70;;;;;;;;;;103763;1290;545395;-73
2024/01/19 06:37:04;;;;;;;17.40;8.40;;;;;;;;;;104033;1289;544965;-73
2024/01/19 06:40:44;;;;;;;19.70;9.40;;;;;;;;;;103562;1294;548644;-73
2024/01/19 06:44:19;;;;;;;19.70;11.70;;;;;;;;;;103787;1289;545431;-72
2024/01/19 06:47:57;;;;;;;16.70;8.50;;;;;;;;;;103840;1289;544933;-72
2024/01/19 06:51:34;;;;;;;16.00;7.30;;;;;;;;;;103738;1293;545625;-72
2024/01/19 06:55:11;;;;;;;17.10;7.50;;;;;;;;;;103777;1289;544767;-74
2024/01/19 06:58:49;;;;;;;21.00;8.00;;;;;;;;;;103702;1292;545384;-74
2024/01/19 07:02:27;;;;;;;19.10;8.20;;;;;;;;;;103858;1289;545779;-74
2024/01/19 07:06:04;;;;;;;20.30;8.20;;;;;;;;;;103820;1289;544819;-74
2024/01/19 07:09:47;;;;;;;19.80;8.70;;;;;;;;;;103456;1291;549914;-73
2024/01/19 07:13:19;;;;;;;22.70;9.30;;;;;;;;;;103795;1289;546275;-72
2024/01/19 07:16:56;;;;;;;20.00;8.20;;;;;;;;;;103747;1290;545628;-73
2024/01/19 07:20:34;;;;;;;19.40;8.00;;;;;;;;;;103783;1292;545014;-73
2024/01/19 07:24:15;;;;;;;21.30;7.80;;;;;;;;;;104633;1281;545399;-72
2024/01/19 07:27:49;;;;;;;16.60;6.80;;;;;;;;;;103759;1289;544990;-73
2024/01/19 07:31:27;;;;;;;16.70;7.50;;;;;;;;;;103619;1295;544774;-74
2024/01/19 07:35:04;;;;;;;18.00;7.30;;;;;;;;;;103664;1290;544747;-72
2024/01/19 07:38:47;;;;;;;16.80;7.00;;;;;;;;;;103669;1292;547615;-72
2024/01/19 07:42:15;;;;;;;17.00;6.80;;;;;;;;;;103775;1292;544702;-73
2024/01/19 07:45:56;;;;;;;18.40;7.70;;;;;;;;;;103637;1290;545432;-73
2024/01/19 07:49:34;;;;;;;20.30;8.80;;;;;;;;;;103415;1306;545414;-72
2024/01/19 07:53:11;;;;;;;20.10;8.70;;;;;;;;;;103745;1289;545302;-72
2024/01/19 07:56:48;;;;;;;19.40;8.20;;;;;;;;;;103653;1291;544999;-74
2024/01/19 08:00:26;;;;;;;21.50;8.30;;;;;;;;;;103678;1292;544784;-73
2024/01/19 08:04:04;;;;;;;20.40;8.80;;;;;;;;;;103741;1291;544609;-72
2024/01/19 08:07:41;;;;;;;20.20;10.00;;;;;;;;;;103715;1289;544980;-71
2024/01/19 08:11:18;;;;;;;22.60;9.90;;;;;;;;;;103836;1289;544780;-72
2024/01/19 08:14:57;;;;;;;22.00;8.60;;;;;;;;;;103738;1291;545516;-73
2024/01/19 08:18:34;;;;;;;16.80;7.30;;;;;;;;;;103736;1302;544709;-73
2024/01/19 08:22:12;;;;;;;25.00;9.90;;;;;;;;;;103665;1290;545235;-73
2024/01/19 08:25:45;;;;;;;21.10;8.20;;;;;;;;;;104268;1286;545917;-73
2024/01/19 08:29:26;;;;;;;23.00;8.90;;;;;;;;;;103691;1292;544945;-73
2024/01/19 08:33:04;;;;;;;20.50;9.00;;;;;;;;;;103746;1291;544930;-72
2024/01/19 08:36:41;;;;;;;20.10;8.00;;;;;;;;;;103865;1295;545053;-72
2024/01/19 08:40:19;;;;;;;19.60;7.80;;;;;;;;;;103749;1290;545977;-73
2024/01/19 08:43:56;;;;;;;16.30;7.00;;;;;;;;;;103735;1289;544827;-72
2024/01/19 08:47:35;;;;;;;18.90;7.10;;;;;;;;;;103672;1292;545838;-73
2024/01/19 08:51:17;;;;;;;19.10;7.50;;;;;;;;;;103829;1288;544792;-73
2024/01/19 08:54:51;;;;;;;19.80;8.10;;;;;;;;;;103979;1289;547841;-72
2024/01/19 08:58:25;;;;;;;19.60;7.50;;;;;;;;;;103858;1289;545479;-73
2024/01/19 09:02:03;;;;;;;18.80;8.50;;;;;;;;;;104156;1283;545406;-72
2024/01/19 09:05:40;;;;;;;23.20;11.70;;;;;;;;;;103839;1288;544780;-72
2024/01/19 09:09:14;;;;;;;31.40;14.30;;;;;;;;;;103693;1292;545592;-73
2024/01/19 09:12:55;;;;;;;39.90;19.10;;;;;;;;;;103715;1292;544940;-72
2024/01/19 09:16:33;;;;;;;60.20;27.00;;;;;;;;;;103665;1291;544794;-72
2024/01/19 09:20:11;;;;;;;46.90;20.00;;;;;;;;;;103768;1289;544992;-72
2024/01/19 09:23:47;;;;;;;55.00;23.00;;;;;;;;;;103740;1289;545976;-74
2024/01/19 09:27:25;;;;;;;60.90;25.80;;;;;;;;;;103797;1290;545172;-73
2024/01/19 09:31:03;;;;;;;58.70;24.40;;;;;;;;;;103770;1290;544850;-73
2024/01/19 09:34:40;;;;;;;47.40;19.80;;;;;;;;;;103768;1288;545023;-73
2024/01/19 09:38:18;;;;;;;44.80;18.40;;;;;;;;;;103711;1295;544966;-74
2024/01/19 09:42:00;;;;;;;33.40;15.60;;;;;;;;;;103745;1291;544869;-73
2024/01/19 09:45:40;;;;;;;33.50;16.20;;;;;;;;;;103820;1291;544736;-73
2024/01/19 09:49:24;;;;;;;35.50;16.90;;;;;;;;;;104254;1285;544990;-74
2024/01/19 09:52:50;;;;;;;35.60;16.00;;;;;;;;;;103716;1292;545750;-74
2024/01/19 09:56:25;;;;;;;28.60;14.60;;;;;;;;;;104057;1287;545995;-74
2024/01/19 10:00:03;;;;;;;32.60;15.50;;;;;;;;;;103781;1288;544795;-74
2024/01/19 10:03:39;;;;;;;18.00;8.30;;;;;;;;;;103721;1292;545011;-74
2024/01/19 10:07:14;;;;;;;15.80;6.20;;;;;;;;;;103807;1289;544821;-74
2024/01/19 10:10:55;;;;;;;15.80;6.50;;;;;;;;;;103840;1290;545411;-74
2024/01/19 10:14:32;;;;;;;12.40;4.30;;;;;;;;;;103724;1289;545874;-74
2024/01/19 10:18:10;;;;;;;12.40;5.00;;;;;;;;;;103807;1292;545027;-75
2024/01/19 10:21:53;;;;;;;13.70;4.90;;;;;;;;;;103569;1291;548783;-75
2024/01/19 10:25:20;;;;;;;13.40;4.70;;;;;;;;;;103916;1290;544822;-75
2024/01/19 10:29:12;;;;;;;14.30;5.10;;;;;;;;;;103833;1290;544879;-74
2024/01/19 10:32:40;;;;;;;14.60;6.30;;;;;;;;;;104687;1282;545560;-75
2024/01/19 10:36:17;;;;;;;19.30;8.20;;;;;;;;;;103724;1289;544611;-75
2024/01/19 10:39:54;;;;;;;16.40;7.70;;;;;;;;;;103765;1295;544847;-74
2024/01/19 10:43:28;;;;;;;17.40;7.40;;;;;;;;;;103840;1289;546078;-74
2024/01/19 10:47:10;;;;;;;16.40;5.90;;;;;;;;;;103698;1302;544717;-74
2024/01/19 10:50:47;;;;;;;15.90;7.80;;;;;;;;;;103538;1291;545768;-75
2024/01/19 10:54:25;;;;;;;16.70;5.70;;;;;;;;;;103706;1290;544851;-74
2024/01/19 10:58:04;;;;;;;13.60;4.40;;;;;;;;;;103713;1295;545730;-71
2024/01/19 11:01:39;;;;;;;14.10;5.10;;;;;;;;;;103697;1291;544996;-74
2024/01/19 11:05:20;;;;;;;17.10;7.20;;;;;;;;;;103662;1290;545003;-74
2024/01/19 11:08:53;;;;;;;15.90;4.80;;;;;;;;;;103746;1289;545088;-74
2024/01/19 11:12:35;;;;;;;14.30;5.30;;;;;;;;;;103699;1292;544973;-74
2024/01/19 11:16:14;;;;;;;16.50;5.40;;;;;;;;;;103796;1291;545030;-74
2024/01/19 11:19:47;;;;;;;13.90;5.50;;;;;;;;;;103821;1289;544970;-72
2024/01/19 11:23:24;;;;;;;14.50;5.30;;;;;;;;;;103763;1289;544920;-71
2024/01/19 11:27:08;;;;;;;16.50;5.00;;;;;;;;;;103802;1292;545671;-74
2024/01/19 11:30:51;;;;;;;13.60;4.80;;;;;;;;;;103711;1291;545439;-73
2024/01/19 11:34:36;;;;;;;14.20;6.40;;;;;;;;;;103327;1294;546412;-74
2024/01/19 11:37:50;;;;;;;13.70;5.70;;;;;;;;;;103913;1289;544777;-73
2024/01/19 11:41:37;;;;;;;11.50;4.80;;;;;;;;;;103640;1292;546200;-74
2024/01/19 11:45:20;;;;;;;13.60;5.60;;;;;;;;;;103875;1288;545214;-73
2024/01/19 11:48:47;;;;;;;14.60;5.40;;;;;;;;;;103843;1291;545396;-77
2024/01/19 11:52:24;;;;;;;18.10;6.80;;;;;;;;;;103667;1291;544959;-74
2024/01/19 11:56:19;;;;;;;16.30;6.20;;;;;;;;;;103746;1292;545168;-75
2024/01/19 11:59:39;;;;;;;20.10;9.20;;;;;;;;;;103685;1292;544721;-74
2024/01/19 12:03:18;;;;;;;17.00;7.20;;;;;;;;;;103620;1292;545414;-75
2024/01/19 12:07:03;;;;;;;25.90;9.70;;;;;;;;;;103774;1301;545930;-75
2024/01/19 12:10:31;;;;;;;16.00;7.10;;;;;;;;;;103721;1291;544770;-75
2024/01/19 12:14:28;;;;;;;20.30;10.00;;;;;;;;;;103640;1289;547960;-74
2024/01/19 12:17:46;;;;;;;16.60;7.60;;;;;;;;;;103746;1292;545053;-75
2024/01/19 12:21:24;;;;;;;15.10;5.50;;;;;;;;;;103731;1291;544976;-75
2024/01/19 12:25:13;;;;;;;19.40;6.20;;;;;;;;;;103753;1291;545431;-75
2024/01/19 12:28:34;;;;;;;13.90;6.60;;;;;;;;;;103694;1291;544995;-76
2024/01/19 12:32:18;;;;;;;10.30;4.40;;;;;;;;;;103696;1291;544865;-75
2024/01/19 12:36:03;;;;;;;12.50;4.30;;;;;;;;;;103738;1290;545870;-76
2024/01/19 12:39:36;;;;;;;12.40;4.40;;;;;;;;;;103549;1292;548134;-76
2024/01/19 12:43:08;;;;;;;12.60;3.80;;;;;;;;;;103703;1291;544774;-78
2024/01/19 12:46:51;;;;;;;12.10;4.20;;;;;;;;;;103476;1305;547936;-78
2024/01/19 12:50:19;;;;;;;9.80;3.70;;;;;;;;;;103809;1289;545036;-78
2024/01/19 12:54:06;;;;;;;10.90;2.80;;;;;;;;;;103610;1289;548137;-78
2024/01/19 12:57:49;;;;;;;8.90;2.80;;;;;;;;;;103560;1294;547954;-77
2024/01/19 13:01:17;;;;;;;10.30;3.10;;;;;;;;;;104270;1285;544969;-78
2024/01/19 13:04:49;;;;;;;10.90;3.20;;;;;;;;;;103904;1288;546007;-78
2024/01/19 13:08:37;;;;;;;12.10;4.00;;;;;;;;;;103637;1290;548292;-78
2024/01/19 13:12:13;;;;;;;12.20;4.20;;;;;;;;;;103736;1289;548738;-78
2024/01/19 13:15:46;;;;;;;13.70;4.70;;;;;;;;;;103837;1292;544944;-78
2024/01/19 13:19:23;;;;;;;9.30;3.60;;;;;;;;;;104271;1286;545028;-77
2024/01/19 13:23:01;;;;;;;21.90;8.50;;;;;;;;;;103786;1290;545322;-76
2024/01/19 13:26:38;;;;;;;50.70;18.30;;;;;;;;;;103828;1292;544993;-77
2024/01/19 13:30:16;;;;;;;30.00;13.30;;;;;;;;;;104228;1284;545730;-76
2024/01/19 13:33:53;;;;;;;31.00;12.70;;;;;;;;;;103769;1290;544774;-78
2024/01/19 13:37:30;;;;;;;24.60;10.60;;;;;;;;;;103863;1292;544618;-77
2024/01/19 13:41:09;;;;;;;16.60;6.40;;;;;;;;;;103677;1289;545095;-79
2024/01/19 13:44:51;;;;;;;14.70;5.70;;;;;;;;;;103607;1292;547983;-79
2024/01/19 13:48:19;;;;;;;17.70;6.80;;;;;;;;;;103812;1289;545351;-76
2024/01/19 13:52:07;;;;;;;21.70;9.60;;;;;;;;;;104264;1283;548189;-79
2024/01/19 13:55:43;;;;;;;23.70;10.00;;;;;;;;;;103651;1292;548445;-78
2024/01/19 13:59:15;;;;;;;13.60;4.40;;;;;;;;;;103781;1290;545122;-78
2024/01/19 14:02:58;;;;;;;17.00;9.20;;;;;;;;;;103574;1289;548004;-79
2024/01/19 14:06:35;;;;;;;11.10;5.90;;;;;;;;;;103593;1303;548007;-79
2024/01/19 14:10:07;;;;;;;11.30;4.90;;;;;;;;;;103641;1292;544944;-80
2024/01/19 14:13:53;;;;;;;12.40;4.10;;;;;;;;;;103306;1294;547994;-79
2024/01/19 14:17:28;;;;;;;14.00;6.10;;;;;;;;;;103444;1293;547963;-78
2024/01/19 14:21:00;;;;;;;15.10;5.60;;;;;;;;;;103768;1292;544908;-79
2024/01/19 14:24:36;;;;;;;13.60;4.30;;;;;;;;;;103712;1289;545623;-80
2024/01/19 14:28:21;;;;;;;26.90;14.00;;;;;;;;;;103617;1289;547852;-78
2024/01/19 14:31:58;;;;;;;13.90;5.40;;;;;;;;;;103586;1294;547813;-80
2024/01/19 14:35:30;;;;;;;13.90;4.50;;;;;;;;;;103740;1292;544878;-79
2024/01/19 14:39:07;;;;;;;13.20;5.80;;;;;;;;;;103669;1291;544810;-80
2024/01/19 14:42:44;;;;;;;15.90;5.80;;;;;;;;;;103700;1291;545477;-79
2024/01/19 14:46:21;;;;;;;46.60;26.80;;;;;;;;;;103773;1289;545009;-77
2024/01/19 14:50:00;;;;;;;38.90;25.00;;;;;;;;;;104127;1285;545367;-78
2024/01/19 14:53:38;;;;;;;22.10;9.90;;;;;;;;;;103806;1289;544986;-78
2024/01/19 14:57:15;;;;;;;22.90;9.30;;;;;;;;;;103565;1295;545063;-77
2024/01/19 15:00:52;;;;;;;26.90;13.20;;;;;;;;;;103756;1289;544743;-77
2024/01/19 15:04:31;;;;;;;25.00;11.40;;;;;;;;;;103737;1294;545979;-77
2024/01/19 15:08:07;;;;;;;16.70;7.60;;;;;;;;;;103750;1293;545360;-76
2024/01/19 15:11:45;;;;;;;23.90;9.50;;;;;;;;;;103772;1290;544989;-77
2024/01/19 15:15:21;;;;;;;20.30;14.20;;;;;;;;;;103683;1289;545036;-79
2024/01/19 15:19:00;;;;;;;19.00;9.60;;;;;;;;;;103960;1288;545004;-77
2024/01/19 15:22:36;;;;;;;17.00;6.90;;;;;;;;;;103798;1289;545313;-76
2024/01/19 15:26:16;;;;;;;17.10;7.10;;;;;;;;;;103717;1301;545449;-76
2024/01/19 15:29:52;;;;;;;35.80;8.40;;;;;;;;;;103695;1290;544784;-75
2024/01/19 15:33:30;;;;;;;16.00;6.30;;;;;;;;;;103852;1289;544793;-76
2024/01/19 15:37:07;;;;;;;20.20;9.20;;;;;;;;;;103888;1289;545721;-75
2024/01/19 15:40:44;;;;;;;19.70;8.50;;;;;;;;;;103807;1290;545909;-77
2024/01/19 15:44:17;;;;;;;30.10;14.60;;;;;;;;;;103986;1288;545785;-75
2024/01/19 15:47:59;;;;;;;53.10;23.10;;;;;;;;;;103859;1295;544999;-75
2024/01/19 15:51:36;;;;;;;56.20;24.90;;;;;;;;;;103747;1292;545768;-75
2024/01/19 15:55:13;;;;;;;56.10;24.00;;;;;;;;;;103822;1291;544715;-74
2024/01/19 15:58:51;;;;;;;36.80;17.10;;;;;;;;;;104100;1289;545575;-73
2024/01/19 16:02:29;;;;;;;41.80;21.70;;;;;;;;;;103802;1289;544928;-74
2024/01/19 16:06:07;;;;;;;26.20;14.70;;;;;;;;;;104102;1294;545135;-74
2024/01/19 16:09:43;;;;;;;28.00;14.10;;;;;;;;;;103755;1292;545450;-74
2024/01/19 16:13:24;;;;;;;34.40;17.30;;;;;;;;;;103746;1292;545003;-73
2024/01/19 16:16:57;;;;;;;47.70;25.40;;;;;;;;;;103861;1294;544733;-73
2024/01/19 16:20:32;;;;;;;62.40;32.30;;;;;;;;;;103951;1288;544999;-73
2024/01/19 16:24:10;;;;;;;37.80;21.40;;;;;;;;;;103955;1288;544881;-75
2024/01/19 16:27:47;;;;;;;33.00;17.60;;;;;;;;;;103797;1289;545020;-74
2024/01/19 16:31:28;;;;;;;21.90;11.10;;;;;;;;;;103718;1292;545580;-74
2024/01/19 16:35:06;;;;;;;29.90;15.60;;;;;;;;;;103597;1292;546104;-73
2024/01/19 16:38:45;;;;;;;31.60;16.20;;;;;;;;;;103755;1289;545032;-74
2024/01/19 16:42:20;;;;;;;36.60;18.00;;;;;;;;;;103974;1288;545610;-74
2024/01/19 16:45:58;;;;;;;31.20;16.90;;;;;;;;;;103726;1295;545063;-74
2024/01/19 16:49:35;;;;;;;27.90;14.70;;;;;;;;;;103690;1292;545058;-73
2024/01/19 16:53:13;;;;;;;25.40;12.70;;;;;;;;;;103627;1292;544847;-74
2024/01/19 16:56:52;;;;;;;22.00;11.00;;;;;;;;;;103709;1294;545379;-74
2024/01/19 17:00:25;;;;;;;17.00;8.20;;;;;;;;;;103856;1289;545166;-73
2024/01/19 17:04:06;;;;;;;19.20;8.80;;;;;;;;;;104106;1289;544831;-75
2024/01/19 17:07:43;;;;;;;22.00;10.30;;;;;;;;;;105849;1289;544784;-74
2024/01/19 17:11:24;;;;;;;22.20;9.60;;;;;;;;;;104016;1292;544830;-73
2024/01/19 17:14:58;;;;;;;18.50;9.30;;;;;;;;;;103649;1296;545920;-73
2024/01/19 17:18:31;;;;;;;35.70;16.70;;;;;;;;;;103715;1292;545043;-73
2024/01/19 17:22:13;;;;;;;26.30;15.20;;;;;;;;;;103703;1291;545428;-73
2024/01/19 17:25:50;;;;;;;42.40;21.40;;;;;;;;;;103900;1290;545317;-73
2024/01/19 17:29:28;;;;;;;35.50;18.90;;;;;;;;;;103634;1292;545448;-72
2024/01/19 17:33:05;;;;;;;31.10;15.70;;;;;;;;;;103661;1291;545706;-74
2024/01/19 17:36:42;;;;;;;23.90;14.10;;;;;;;;;;103672;1291;544995;-75
2024/01/19 17:40:20;;;;;;;17.70;9.40;;;;;;;;;;103680;1291;545149;-73
2024/01/19 17:43:58;;;;;;;20.10;10.70;;;;;;;;;;103676;1291;545020;-74
2024/01/19 17:47:35;;;;;;;19.90;10.50;;;;;;;;;;103702;1291;545602;-74
2024/01/19 17:51:18;;;;;;;18.60;8.40;;;;;;;;;;103534;1292;547810;-73
2024/01/19 17:54:49;;;;;;;14.80;7.20;;;;;;;;;;103648;1303;544965;-74
2024/01/19 17:58:27;;;;;;;15.20;6.80;;;;;;;;;;103632;1294;545074;-74
2024/01/19 18:02:06;;;;;;;18.60;7.80;;;;;;;;;;103737;1292;544915;-73
2024/01/19 18:05:43;;;;;;;27.50;15.40;;;;;;;;;;103639;1295;545113;-73
2024/01/19 18:09:19;;;;;;;28.30;17.50;;;;;;;;;;103544;1291;546156;-73
2024/01/19 18:12:57;;;;;;;15.80;8.90;;;;;;;;;;103612;1291;545695;-74
2024/01/19 18:16:34;;;;;;;13.40;5.80;;;;;;;;;;103368;1294;545692;-75
2024/01/19 18:20:19;;;;;;;15.20;6.80;;;;;;;;;;103583;1290;548114;-75
2024/01/19 18:23:49;;;;;;;23.00;11.80;;;;;;;;;;103658;1291;544726;-75
2024/01/19 18:27:47;;;;;;;18.60;9.30;;;;;;;;;;103855;1289;547989;-73
2024/01/19 18:31:04;;;;;;;22.90;10.90;;;;;;;;;;103725;1292;545479;-74
2024/01/19 18:34:42;;;;;;;22.40;11.90;;;;;;;;;;103376;1297;545001;-73
2024/01/19 18:38:20;;;;;;;22.60;12.80;;;;;;;;;;103613;1294;544750;-73
2024/01/19 18:41:57;;;;;;;19.40;8.60;;;;;;;;;;103658;1291;545918;-73
2024/01/19 18:45:40;;;;;;;16.00;8.00;;;;;;;;;;103643;1292;548152;-75
2024/01/19 18:49:12;;;;;;;37.40;18.50;;;;;;;;;;103711;1292;545465;-74
2024/01/19 18:52:49;;;;;;;36.40;21.70;;;;;;;;;;103476;1294;545044;-73
2024/01/19 18:56:27;;;;;;;26.90;14.10;;;;;;;;;;103719;1295;545684;-74
2024/01/19 19:00:04;;;;;;;22.90;11.60;;;;;;;;;;103681;1292;544976;-76
2024/01/19 19:03:42;;;;;;;18.60;8.90;;;;;;;;;;103715;1292;545983;-74
2024/01/19 19:07:18;;;;;;;22.70;11.30;;;;;;;;;;103673;1291;545621;-74
2024/01/19 19:10:57;;;;;;;16.50;6.70;;;;;;;;;;103654;1291;545604;-73
2024/01/19 19:14:39;;;;;;;26.60;10.20;;;;;;;;;;103648;1291;547809;-73
2024/01/19 19:18:12;;;;;;;29.60;12.10;;;;;;;;;;103522;1293;544865;-73
2024/01/19 19:21:51;;;;;;;47.30;18.70;;;;;;;;;;103645;1291;544814;-73
2024/01/19 19:25:27;;;;;;;22.00;8.60;;;;;;;;;;103443;1298;545879;-74
2024/01/19 19:29:04;;;;;;;17.60;6.70;;;;;;;;;;103588;1295;544960;-73
2024/01/19 19:32:46;;;;;;;16.30;6.70;;;;;;;;;;103412;1295;545815;-73
2024/01/19 19:36:26;;;;;;;18.00;7.70;;;;;;;;;;103542;1296;547974;-73
2024/01/19 19:39:56;;;;;;;21.60;9.10;;;;;;;;;;103408;1295;545447;-74
2024/01/19 19:43:33;;;;;;;42.70;21.20;;;;;;;;;;103572;1294;545111;-74
2024/01/19 19:47:11;;;;;;;41.30;18.80;;;;;;;;;;103708;1292;545303;-74
2024/01/19 19:50:49;;;;;;;69.00;28.40;;;;;;;;;;103687;1290;545264;-73
2024/01/19 19:54:28;;;;;;;34.70;16.90;;;;;;;;;;103706;1294;545038;-74
2024/01/19 19:57:59;;;;;;;31.40;13.30;;;;;;;;;;104070;1289;544751;-74
2024/01/19 20:01:41;;;;;;;21.40;9.30;;;;;;;;;;103824;1289;545434;-74
2024/01/19 20:05:20;;;;;;;33.00;15.10;;;;;;;;;;103697;1292;544923;-74
2024/01/19 20:08:56;;;;;;;32.40;15.50;;;;;;;;;;103925;1288;544835;-74
2024/01/19 20:12:33;;;;;;;31.00;15.40;;;;;;;;;;103670;1289;546108;-74
2024/01/19 20:16:12;;;;;;;36.50;16.70;;;;;;;;;;103846;1296;544989;-74
2024/01/19 20:19:49;;;;;;;32.60;14.50;;;;;;;;;;103678;1291;545152;-74
2024/01/19 20:23:25;;;;;;;21.40;9.70;;;;;;;;;;103761;1292;544796;-73
2024/01/19 20:26:59;;;;;;;28.20;11.70;;;;;;;;;;104019;1289;546394;-74
2024/01/19 20:30:41;;;;;;;30.00;12.40;;;;;;;;;;103801;1290;545608;-74
2024/01/19 20:34:18;;;;;;;26.30;11.70;;;;;;;;;;103764;1292;545158;-74
2024/01/19 20:37:59;;;;;;;28.50;11.90;;;;;;;;;;103612;1290;544954;-74
2024/01/19 20:41:33;;;;;;;22.00;9.50;;;;;;;;;;103749;1291;544950;-74